Time;durP1;ratioP1;P1;durP2;ratioP2;P2;SDS_P1;SDS_P2;PMS_P1;PMS_P2;Temp;Humidity;BMP_temperature;BMP_pressure;BME280_temperature;BME280_humidity;BME280_pressure;Samples;Min_cycle;Max_cycle;Signal;HPM_P1;HPM_P2
2023/10/18 00:01:25;;;;;;;8.43;4.07;;;;;;;;;;4977521;28;20029;-82
2023/10/18 00:03:54;;;;;;;9.43;4.20;;;;;;;;;;4993545;28;20144;-84
2023/10/18 00:06:22;;;;;;;5.25;4.07;;;;;;;;;;5004390;28;20053;-83
2023/10/18 00:08:49;;;;;;;10.10;5.15;;;;;;;;;;5006446;28;20482;-83
2023/10/18 00:11:15;;;;;;;8.35;4.28;;;;;;;;;;4976018;28;20032;-84
2023/10/18 00:13:42;;;;;;;7.88;4.65;;;;;;;;;;5007788;28;20065;-82
2023/10/18 00:16:08;;;;;;;9.80;4.20;;;;;;;;;;4990352;28;20045;-84
2023/10/18 00:18:34;;;;;;;10.52;4.85;;;;;;;;;;5002398;28;20413;-83
2023/10/18 00:21:05;;;;;;;9.48;5.53;;;;;;;;;;5003814;28;20147;-83
2023/10/18 00:23:33;;;;;;;9.65;5.05;;;;;;;;;;5006811;28;20055;-82
2023/10/18 00:26:06;;;;;;;6.00;4.75;;;;;;;;;;5002966;28;20073;-82
2023/10/18 00:28:34;;;;;;;7.47;5.07;;;;;;;;;;4987598;28;20116;-82
2023/10/18 00:31:14;;;;;;;10.50;5.72;;;;;;;;;;4985203;28;20050;-82
2023/10/18 00:33:40;;;;;;;12.20;5.80;;;;;;;;;;5001769;28;20573;-82
2023/10/18 00:36:10;;;;;;;6.50;5.63;;;;;;;;;;4993799;28;20034;-82
2023/10/18 00:38:38;;;;;;;11.10;5.60;;;;;;;;;;4973521;28;20049;-82
2023/10/18 00:41:07;;;;;;;11.15;6.13;;;;;;;;;;4988644;28;20041;-83
2023/10/18 00:43:33;;;;;;;7.88;5.95;;;;;;;;;;4972392;28;20056;-83
2023/10/18 00:46:00;;;;;;;13.02;6.30;;;;;;;;;;5003394;28;20081;-81
2023/10/18 00:48:28;;;;;;;15.48;6.82;;;;;;;;;;5005295;28;20061;-84
2023/10/18 00:50:55;;;;;;;8.80;6.68;;;;;;;;;;4997956;28;20117;-83
2023/10/18 00:53:25;;;;;;;11.80;6.47;;;;;;;;;;5001210;28;20569;-83
2023/10/18 00:56:04;;;;;;;13.13;6.88;;;;;;;;;;4987175;28;20066;-84
2023/10/18 00:58:32;;;;;;;11.20;7.20;;;;;;;;;;4990935;28;20093;-84
2023/10/18 01:00:59;;;;;;;11.38;7.20;;;;;;;;;;4986654;28;20038;-83
2023/10/18 01:03:28;;;;;;;10.80;7.05;;;;;;;;;;4988252;28;20111;-83
2023/10/18 01:06:05;;;;;;;9.00;7.00;;;;;;;;;;5001661;28;20414;-83
2023/10/18 01:08:34;;;;;;;11.30;7.53;;;;;;;;;;4998371;28;20054;-84
2023/10/18 01:11:04;;;;;;;11.10;7.82;;;;;;;;;;4998384;28;20050;-82
2023/10/18 01:13:36;;;;;;;12.02;7.75;;;;;;;;;;4987785;28;20046;-80
2023/10/18 01:16:05;;;;;;;9.50;7.38;;;;;;;;;;4988262;28;20140;-83
2023/10/18 01:18:32;;;;;;;11.70;8.18;;;;;;;;;;5002794;28;20424;-82
2023/10/18 01:21:00;;;;;;;11.80;7.57;;;;;;;;;;4984050;28;20034;-83
2023/10/18 01:23:27;;;;;;;12.25;8.43;;;;;;;;;;4986520;28;20050;-83
2023/10/18 01:25:53;;;;;;;15.20;8.05;;;;;;;;;;4977968;28;20096;-82
2023/10/18 01:28:19;;;;;;;9.13;7.10;;;;;;;;;;4976535;28;20042;-82
2023/10/18 01:30:45;;;;;;;9.25;7.13;;;;;;;;;;4984611;28;20077;-82
2023/10/18 01:33:13;;;;;;;9.60;7.60;;;;;;;;;;4969246;28;20114;-80
2023/10/18 01:35:50;;;;;;;10.90;6.93;;;;;;;;;;4981856;28;20116;-83
2023/10/18 01:38:16;;;;;;;11.52;7.20;;;;;;;;;;4992400;28;20129;-82
2023/10/18 01:40:52;;;;;;;13.00;6.95;;;;;;;;;;4987267;28;20042;-84
2023/10/18 01:43:25;;;;;;;12.55;6.90;;;;;;;;;;5008154;28;20520;-82
2023/10/18 01:45:51;;;;;;;10.57;7.40;;;;;;;;;;4993623;28;20057;-82
2023/10/18 01:48:18;;;;;;;15.85;7.40;;;;;;;;;;4984672;28;20066;-83
2023/10/18 01:50:50;;;;;;;12.55;6.45;;;;;;;;;;4994936;28;20076;-83
2023/10/18 01:53:16;;;;;;;15.15;6.97;;;;;;;;;;4992874;28;20049;-83
2023/10/18 01:55:51;;;;;;;12.10;6.35;;;;;;;;;;4977316;28;20076;-82
2023/10/18 01:58:18;;;;;;;9.35;6.03;;;;;;;;;;4989439;28;20040;-82
2023/10/18 02:00:44;;;;;;;8.27;5.95;;;;;;;;;;5002748;28;20386;-82
2023/10/18 02:03:14;;;;;;;11.27;5.55;;;;;;;;;;4974095;28;20402;-83
2023/10/18 02:05:43;;;;;;;9.18;5.85;;;;;;;;;;4975302;28;20042;-83
2023/10/18 02:08:11;;;;;;;11.68;6.28;;;;;;;;;;5011625;28;20044;-84
2023/10/18 02:10:40;;;;;;;11.38;6.45;;;;;;;;;;4987346;28;20046;-83
2023/10/18 02:13:08;;;;;;;8.73;6.57;;;;;;;;;;4995511;28;20074;-84
2023/10/18 02:15:39;;;;;;;8.90;6.20;;;;;;;;;;4979152;28;20038;-84
2023/10/18 02:18:05;;;;;;;10.70;6.85;;;;;;;;;;4992154;28;20046;-83
2023/10/18 02:20:31;;;;;;;11.63;7.45;;;;;;;;;;5011328;28;20042;-83
2023/10/18 02:23:00;;;;;;;12.13;7.68;;;;;;;;;;5005711;28;20068;-82
2023/10/18 02:28:08;;;;;;;13.23;7.68;;;;;;;;;;5007582;28;20046;-83
2023/10/18 02:30:35;;;;;;;10.13;7.40;;;;;;;;;;5003582;28;20046;-83
2023/10/18 02:33:02;;;;;;;11.00;7.72;;;;;;;;;;5009068;28;20404;-84
2023/10/18 02:35:28;;;;;;;13.05;7.78;;;;;;;;;;4996912;28;20188;-83
2023/10/18 02:37:54;;;;;;;15.70;7.93;;;;;;;;;;4995597;28;20504;-83
2023/10/18 02:40:29;;;;;;;18.95;7.97;;;;;;;;;;4989497;28;20037;-83
2023/10/18 02:42:57;;;;;;;12.20;8.52;;;;;;;;;;5003759;28;20041;-82
2023/10/18 02:45:23;;;;;;;13.57;8.40;;;;;;;;;;5002764;28;20045;-83
2023/10/18 02:47:52;;;;;;;17.75;8.50;;;;;;;;;;4998418;28;20045;-83
2023/10/18 02:50:20;;;;;;;12.43;8.48;;;;;;;;;;4980453;28;20049;-82
2023/10/18 02:52:46;;;;;;;15.95;9.20;;;;;;;;;;5009139;28;20049;-84
2023/10/18 02:55:13;;;;;;;10.90;8.57;;;;;;;;;;5009401;28;20450;-84
2023/10/18 02:57:46;;;;;;;13.30;9.40;;;;;;;;;;4992166;28;20050;-84
2023/10/18 03:00:13;;;;;;;13.73;8.48;;;;;;;;;;4978950;28;20117;-84
2023/10/18 03:02:39;;;;;;;11.27;8.13;;;;;;;;;;4996531;28;20049;-83
2023/10/18 03:05:06;;;;;;;12.93;8.43;;;;;;;;;;4987058;28;20105;-83
2023/10/18 03:07:34;;;;;;;11.43;9.05;;;;;;;;;;4995028;28;20050;-82
2023/10/18 03:10:27;;;;;;;20.35;9.50;;;;;;;;;;4989626;28;20412;-81
2023/10/18 03:12:53;;;;;;;13.15;9.23;;;;;;;;;;5005658;28;20115;-84
2023/10/18 03:15:21;;;;;;;13.27;9.55;;;;;;;;;;4996692;28;20036;-80
2023/10/18 03:17:49;;;;;;;14.93;9.55;;;;;;;;;;5006578;28;20053;-83
2023/10/18 03:20:23;;;;;;;15.63;9.52;;;;;;;;;;5006578;28;20101;-83
2023/10/18 03:22:49;;;;;;;13.02;9.05;;;;;;;;;;4992461;28;20049;-83
2023/10/18 03:25:30;;;;;;;12.55;9.38;;;;;;;;;;5002856;28;20389;-83
2023/10/18 03:28:04;;;;;;;15.88;9.82;;;;;;;;;;5004470;28;20060;-84
2023/10/18 03:30:46;;;;;;;14.20;9.35;;;;;;;;;;4979160;28;20053;-83
2023/10/18 03:33:12;;;;;;;14.18;9.40;;;;;;;;;;4993374;28;20053;-84
2023/10/18 03:35:43;;;;;;;15.77;10.05;;;;;;;;;;5007107;28;20034;-84
2023/10/18 03:38:21;;;;;;;18.30;9.27;;;;;;;;;;5007397;28;20136;-84
2023/10/18 03:40:57;;;;;;;14.07;10.27;;;;;;;;;;4980921;28;20045;-84
2023/10/18 03:43:26;;;;;;;13.43;10.15;;;;;;;;;;4992431;28;20492;-84
2023/10/18 03:46:08;;;;;;;12.03;9.43;;;;;;;;;;4967581;28;1121592;-85
2023/10/18 03:48:39;;;;;;;17.92;10.82;;;;;;;;;;5013626;28;20489;-84
2023/10/18 03:51:06;;;;;;;21.77;10.80;;;;;;;;;;4997060;28;20409;-84
2023/10/18 03:53:33;;;;;;;15.52;10.52;;;;;;;;;;4995523;28;20127;-83
2023/10/18 03:55:59;;;;;;;14.90;10.95;;;;;;;;;;4989446;28;20045;-83
2023/10/18 03:58:29;;;;;;;17.92;10.90;;;;;;;;;;5005930;28;20530;-83
2023/10/18 04:00:56;;;;;;;17.98;11.88;;;;;;;;;;4986100;28;20472;-84
2023/10/18 04:03:27;;;;;;;17.50;11.10;;;;;;;;;;5009728;28;20049;-83
2023/10/18 04:05:55;;;;;;;15.93;11.18;;;;;;;;;;5003574;28;20037;-84
2023/10/18 04:08:22;;;;;;;17.88;12.02;;;;;;;;;;4989721;28;20049;-82
2023/10/18 04:10:58;;;;;;;25.23;12.68;;;;;;;;;;4991340;28;20042;-83
2023/10/18 04:13:25;;;;;;;17.65;11.80;;;;;;;;;;4991122;28;20080;-84
2023/10/18 04:16:00;;;;;;;17.33;11.50;;;;;;;;;;5009810;28;20041;-83
2023/10/18 04:18:29;;;;;;;18.95;12.68;;;;;;;;;;4981106;28;21049;-84
2023/10/18 04:20:59;;;;;;;15.25;11.48;;;;;;;;;;4993815;28;20045;-82
2023/10/18 04:23:28;;;;;;;14.85;11.68;;;;;;;;;;4991726;28;20559;-80
2023/10/18 04:26:14;;;;;;;18.38;12.57;;;;;;;;;;4993642;28;20037;-83
2023/10/18 04:28:42;;;;;;;19.30;12.65;;;;;;;;;;5007061;28;20117;-82
2023/10/18 04:31:26;;;;;;;17.17;12.65;;;;;;;;;;5010042;28;20046;-82
2023/10/18 04:33:53;;;;;;;;;;;;;;;;;;4988939;28;20401;-81
2023/10/18 04:36:23;;;;;;;17.85;13.35;;;;;;;;;;4988922;28;20007;-82
2023/10/18 04:38:51;;;;;;;19.02;13.63;;;;;;;;;;4998842;28;20132;-83
2023/10/18 04:41:27;;;;;;;22.83;14.35;;;;;;;;;;5004584;28;20397;-84
2023/10/18 04:44:07;;;;;;;18.33;15.18;;;;;;;;;;4996922;28;20481;-83
2023/10/18 04:46:35;;;;;;;20.50;16.52;;;;;;;;;;4981258;28;20156;-84
2023/10/18 04:54:11;;;;;;;26.55;18.45;;;;;;;;;;5005971;28;20038;-85
2023/10/18 04:56:38;;;;;;;24.77;18.83;;;;;;;;;;5004932;28;20038;-85
2023/10/18 05:04:18;;;;;;;29.17;19.42;;;;;;;;;;4996758;28;20128;-78
2023/10/18 05:06:55;;;;;;;29.08;20.00;;;;;;;;;;4974892;28;20030;-84
2023/10/18 05:09:41;;;;;;;29.63;18.95;;;;;;;;;;5002272;28;20497;-85
2023/10/18 05:14:49;;;;;;;32.33;21.75;;;;;;;;;;5006231;28;20060;-84
2023/10/18 05:17:21;;;;;;;31.20;21.55;;;;;;;;;;4993322;28;20041;-84
2023/10/18 05:19:48;;;;;;;33.40;22.33;;;;;;;;;;4989418;28;20061;-84
2023/10/18 05:22:23;;;;;;;33.72;22.60;;;;;;;;;;4985768;28;20554;-85
2023/10/18 05:25:08;;;;;;;35.03;23.00;;;;;;;;;;4977062;28;20401;-84
2023/10/18 05:27:38;;;;;;;35.70;23.33;;;;;;;;;;5004239;28;20073;-85
2023/10/18 05:30:25;;;;;;;35.30;23.73;;;;;;;;;;5006208;28;20046;-85
2023/10/18 05:35:30;;;;;;;37.88;25.33;;;;;;;;;;4988890;28;20595;-85
2023/10/18 05:37:59;;;;;;;40.58;25.10;;;;;;;;;;4998003;28;20506;-85
2023/10/18 05:43:06;;;;;;;36.85;24.58;;;;;;;;;;5001890;28;20050;-85
2023/10/18 05:45:33;;;;;;;36.08;25.15;;;;;;;;;;5023615;28;20046;-84
2023/10/18 05:48:03;;;;;;;36.90;24.40;;;;;;;;;;4975036;28;20133;-83
2023/10/18 05:50:34;;;;;;;36.20;23.60;;;;;;;;;;4979974;28;20046;-84
2023/10/18 05:53:06;;;;;;;37.28;24.45;;;;;;;;;;4990192;28;20453;-84
2023/10/18 05:55:35;;;;;;;40.47;25.52;;;;;;;;;;4988335;28;20041;-84
2023/10/18 05:58:04;;;;;;;47.38;26.63;;;;;;;;;;5005445;28;20125;-84
2023/10/18 06:00:33;;;;;;;52.78;29.52;;;;;;;;;;4989510;28;20042;-84
2023/10/18 06:03:02;;;;;;;57.90;31.35;;;;;;;;;;4988535;28;20049;-85
2023/10/18 06:05:33;;;;;;;49.35;28.30;;;;;;;;;;4993429;28;20481;-83
2023/10/18 06:07:59;;;;;;;51.25;28.83;;;;;;;;;;4988338;28;20193;-85
2023/10/18 06:10:26;;;;;;;43.25;26.52;;;;;;;;;;5000789;28;20142;-84
2023/10/18 06:13:27;;;;;;;45.10;26.35;;;;;;;;;;5002503;28;20041;-84
2023/10/18 06:15:45;;;;;;;39.90;25.23;;;;;;;;;;4985962;28;20458;-83
2023/10/18 06:18:17;;;;;;;42.72;25.60;;;;;;;;;;5003612;28;20129;-84
2023/10/18 06:20:45;;;;;;;36.58;24.02;;;;;;;;;;4969948;28;20042;-84
2023/10/18 06:25:49;;;;;;;39.53;25.00;;;;;;;;;;4989719;28;20092;-84
2023/10/18 06:28:21;;;;;;;39.28;24.95;;;;;;;;;;4991599;28;20046;-83
2023/10/18 06:30:54;;;;;;;39.17;23.98;;;;;;;;;;5004319;28;20046;-83
2023/10/18 06:33:23;;;;;;;35.05;23.17;;;;;;;;;;4995930;28;20108;-82
2023/10/18 06:35:52;;;;;;;40.88;23.83;;;;;;;;;;4993723;28;20481;-82
2023/10/18 06:38:22;;;;;;;35.08;22.55;;;;;;;;;;4989936;28;20132;-82
2023/10/18 06:43:25;;;;;;;39.42;26.48;;;;;;;;;;5000883;28;20052;-83
2023/10/18 06:45:53;;;;;;;43.42;27.55;;;;;;;;;;5017858;28;20529;-83
2023/10/18 06:48:26;;;;;;;38.15;27.08;;;;;;;;;;5005371;28;20037;-83
2023/10/18 06:50:57;;;;;;;36.30;28.00;;;;;;;;;;5018566;28;20492;-85
2023/10/18 06:53:25;;;;;;;39.45;27.67;;;;;;;;;;5019560;28;20109;-83
2023/10/18 06:55:56;;;;;;;40.28;29.42;;;;;;;;;;4997749;28;20072;-83
2023/10/18 07:00:55;;;;;;;36.28;25.38;;;;;;;;;;5008828;28;20076;-83
2023/10/18 07:03:25;;;;;;;30.48;23.08;;;;;;;;;;5014916;28;20056;-81
2023/10/18 07:05:54;;;;;;;31.15;22.95;;;;;;;;;;4995167;28;20044;-83
2023/10/18 07:08:25;;;;;;;30.48;21.70;;;;;;;;;;4995220;28;20041;-84
2023/10/18 07:10:57;;;;;;;31.08;22.35;;;;;;;;;;5011362;28;20497;-84
2023/10/18 07:13:46;;;;;;;30.05;20.58;;;;;;;;;;5011075;28;20497;-84
2023/10/18 07:16:13;;;;;;;31.20;19.80;;;;;;;;;;5002520;28;20048;-86
2023/10/18 07:19:03;;;;;;;27.02;19.05;;;;;;;;;;5022391;28;20511;-83
2023/10/18 07:21:32;;;;;;;26.70;17.77;;;;;;;;;;4995824;28;20070;-83
2023/10/18 07:24:02;;;;;;;24.80;16.75;;;;;;;;;;5006993;28;20100;-82
2023/10/18 07:26:29;;;;;;;26.25;17.50;;;;;;;;;;4986957;28;20037;-83
2023/10/18 07:28:55;;;;;;;22.23;15.52;;;;;;;;;;4979302;28;20493;-82
2023/10/18 07:31:32;;;;;;;24.95;16.45;;;;;;;;;;4991500;28;20037;-83
2023/10/18 07:34:02;;;;;;;22.67;16.23;;;;;;;;;;4980654;28;20044;-83
2023/10/18 07:36:29;;;;;;;22.67;15.25;;;;;;;;;;4995816;28;20049;-84
2023/10/18 07:38:55;;;;;;;26.08;16.65;;;;;;;;;;5007711;28;20069;-83
2023/10/18 07:41:28;;;;;;;24.00;16.70;;;;;;;;;;4995949;28;20140;-85
2023/10/18 07:43:56;;;;;;;27.42;16.23;;;;;;;;;;5002359;28;20492;-82
2023/10/18 07:46:25;;;;;;;24.02;15.75;;;;;;;;;;5001775;28;20053;-83
2023/10/18 07:49:04;;;;;;;24.05;17.75;;;;;;;;;;4989481;28;20049;-82
2023/10/18 07:51:31;;;;;;;21.38;17.20;;;;;;;;;;4988565;28;20045;-81
2023/10/18 07:54:01;;;;;;;22.30;18.95;;;;;;;;;;4997431;28;20068;-83
2023/10/18 07:56:31;;;;;;;24.13;19.63;;;;;;;;;;5004551;28;20481;-82
2023/10/18 08:01:54;;;;;;;21.65;18.73;;;;;;;;;;5008341;28;20033;-83
2023/10/18 08:04:20;;;;;;;22.80;17.25;;;;;;;;;;4983205;28;20128;-83
2023/10/18 08:06:49;;;;;;;22.98;16.95;;;;;;;;;;4984514;28;20036;-83
2023/10/18 08:09:20;;;;;;;22.55;16.38;;;;;;;;;;4989688;28;20502;-83
2023/10/18 08:11:50;;;;;;;26.90;22.27;;;;;;;;;;4996870;28;20086;-85
2023/10/18 08:14:16;;;;;;;29.10;25.98;;;;;;;;;;4992515;28;20388;-86
2023/10/18 08:16:44;;;;;;;33.10;28.40;;;;;;;;;;4996367;28;20447;-86
2023/10/18 08:19:11;;;;;;;38.03;31.33;;;;;;;;;;4994771;28;20037;-86
2023/10/18 08:21:38;;;;;;;36.08;31.85;;;;;;;;;;4992267;28;20124;-85
2023/10/18 08:24:08;;;;;;;25.90;23.10;;;;;;;;;;5000411;28;20049;-86
2023/10/18 08:26:46;;;;;;;22.13;15.75;;;;;;;;;;4989976;28;20044;-85
2023/10/18 08:29:13;;;;;;;16.75;13.18;;;;;;;;;;4996413;28;20081;-85
2023/10/18 08:31:40;;;;;;;16.27;12.07;;;;;;;;;;4993897;28;20030;-86
2023/10/18 08:34:06;;;;;;;14.57;11.98;;;;;;;;;;4999156;28;20037;-86
2023/10/18 08:36:32;;;;;;;18.83;13.30;;;;;;;;;;5009152;28;20395;-86
2023/10/18 08:39:01;;;;;;;15.40;12.30;;;;;;;;;;4995854;28;20037;-85
2023/10/18 08:41:33;;;;;;;17.02;12.82;;;;;;;;;;5009884;28;20045;-84
2023/10/18 08:44:16;;;;;;;15.57;12.45;;;;;;;;;;4999648;28;20489;-81
2023/10/18 08:46:43;;;;;;;18.52;12.25;;;;;;;;;;5012856;28;20073;-81
2023/10/18 08:49:13;;;;;;;14.18;11.77;;;;;;;;;;5004263;28;20034;-82
2023/10/18 08:51:44;;;;;;;15.75;11.32;;;;;;;;;;4993495;28;20046;-82
2023/10/18 08:54:18;;;;;;;13.52;11.82;;;;;;;;;;4987020;28;20041;-82
2023/10/18 08:56:47;;;;;;;16.23;11.35;;;;;;;;;;5005127;28;20042;-82
2023/10/18 08:59:18;;;;;;;16.38;11.82;;;;;;;;;;5006372;28;20109;-85
2023/10/18 09:02:09;;;;;;;15.73;12.27;;;;;;;;;;4992277;28;20080;-82
2023/10/18 09:04:31;;;;;;;18.17;11.73;;;;;;;;;;4989110;28;20081;-82
2023/10/18 09:06:59;;;;;;;15.77;11.40;;;;;;;;;;4975641;28;20033;-81
2023/10/18 09:09:26;;;;;;;17.73;11.82;;;;;;;;;;5000517;28;20521;-82
2023/10/18 09:12:05;;;;;;;15.48;11.05;;;;;;;;;;4992129;28;20068;-81
2023/10/18 09:14:33;;;;;;;15.40;11.50;;;;;;;;;;5005594;28;20041;-82
2023/10/18 09:17:02;;;;;;;16.42;11.82;;;;;;;;;;4995033;28;20077;-81
2023/10/18 09:19:28;;;;;;;14.18;11.68;;;;;;;;;;4975380;28;20486;-82
2023/10/18 09:21:57;;;;;;;14.88;11.57;;;;;;;;;;4982026;28;20048;-80
2023/10/18 09:24:24;;;;;;;14.38;11.27;;;;;;;;;;5003575;28;20049;-86
2023/10/18 09:26:51;;;;;;;14.63;11.45;;;;;;;;;;4989485;28;20125;-86
2023/10/18 09:29:17;;;;;;;17.70;11.40;;;;;;;;;;4997473;28;20038;-85
2023/10/18 09:31:53;;;;;;;14.20;11.20;;;;;;;;;;4999043;28;20041;-85
2023/10/18 09:34:19;;;;;;;17.67;11.43;;;;;;;;;;4992657;28;20036;-85
2023/10/18 09:36:56;;;;;;;13.05;10.23;;;;;;;;;;5011669;28;20037;-86
2023/10/18 09:39:24;;;;;;;15.00;10.75;;;;;;;;;;5009177;28;20097;-84
2023/10/18 09:41:51;;;;;;;12.30;10.70;;;;;;;;;;5004658;28;20042;-84
2023/10/18 09:44:18;;;;;;;15.30;10.52;;;;;;;;;;4997654;28;20045;-83
2023/10/18 09:46:48;;;;;;;13.98;11.50;;;;;;;;;;5002186;28;20066;-86
2023/10/18 09:49:21;;;;;;;16.70;10.35;;;;;;;;;;4977400;28;20132;-86
2023/10/18 09:51:53;;;;;;;15.85;10.00;;;;;;;;;;4994316;28;20076;-87
2023/10/18 09:54:21;;;;;;;14.65;9.60;;;;;;;;;;4989328;28;20042;-83
2023/10/18 09:56:54;;;;;;;11.50;9.93;;;;;;;;;;4989840;28;20041;-83
2023/10/18 09:59:30;;;;;;;14.23;9.35;;;;;;;;;;5010948;28;20088;-82
2023/10/18 10:02:00;;;;;;;12.48;9.98;;;;;;;;;;4989069;28;20474;-82
2023/10/18 10:04:32;;;;;;;18.60;9.98;;;;;;;;;;5008345;28;20512;-84
2023/10/18 10:07:27;;;;;;;12.73;9.90;;;;;;;;;;4990270;28;20045;-82
2023/10/18 10:09:49;;;;;;;11.82;9.98;;;;;;;;;;4997175;28;20045;-83
2023/10/18 10:12:16;;;;;;;16.05;10.38;;;;;;;;;;4995955;28;20092;-82
2023/10/18 10:14:42;;;;;;;12.93;10.10;;;;;;;;;;5006492;28;20042;-82
2023/10/18 10:17:15;;;;;;;12.65;10.10;;;;;;;;;;4973780;28;20042;-82
2023/10/18 10:19:46;;;;;;;13.75;9.75;;;;;;;;;;4987044;28;20129;-82
2023/10/18 10:22:15;;;;;;;11.75;9.07;;;;;;;;;;4991236;28;20042;-84
2023/10/18 10:24:42;;;;;;;11.48;9.00;;;;;;;;;;4985942;28;20046;-81
2023/10/18 10:27:27;;;;;;;10.77;9.63;;;;;;;;;;4990089;28;20133;-82
2023/10/18 10:32:54;;;;;;;12.55;9.63;;;;;;;;;;5004667;28;20049;-81
2023/10/18 10:35:24;;;;;;;12.68;9.82;;;;;;;;;;5005569;28;20049;-83
2023/10/18 10:37:51;;;;;;;10.73;8.95;;;;;;;;;;4984097;28;20038;-80
2023/10/18 10:43:08;;;;;;;12.43;9.43;;;;;;;;;;5008805;28;20042;-82
2023/10/18 10:45:43;;;;;;;10.75;8.98;;;;;;;;;;4977076;28;20041;-83
2023/10/18 10:48:28;;;;;;;12.88;9.77;;;;;;;;;;5006237;28;20464;-82
2023/10/18 10:50:59;;;;;;;15.27;9.25;;;;;;;;;;4997638;28;20045;-84
2023/10/18 10:53:32;;;;;;;13.02;10.23;;;;;;;;;;4998894;28;20029;-82
2023/10/18 10:55:58;;;;;;;11.55;10.07;;;;;;;;;;5017239;28;20042;-82
2023/10/18 10:58:31;;;;;;;12.70;10.45;;;;;;;;;;4997762;28;20048;-82
2023/10/18 11:01:07;;;;;;;16.25;10.18;;;;;;;;;;5011464;28;20053;-82
2023/10/18 11:03:53;;;;;;;11.15;9.85;;;;;;;;;;4994938;28;20049;-91
2023/10/18 11:06:23;;;;;;;13.00;9.75;;;;;;;;;;5020548;28;20041;-91
2023/10/18 11:08:53;;;;;;;17.27;9.65;;;;;;;;;;5009446;28;20041;-91
2023/10/18 11:11:22;;;;;;;12.73;8.77;;;;;;;;;;5008272;28;20092;-90
2023/10/18 11:13:49;;;;;;;12.23;9.35;;;;;;;;;;4989292;28;20509;-91
2023/10/18 11:16:17;;;;;;;11.00;8.60;;;;;;;;;;4987382;28;20034;-90
2023/10/18 11:18:48;;;;;;;12.10;8.90;;;;;;;;;;4991977;28;20026;-90
2023/10/18 11:21:30;;;;;;;15.68;9.30;;;;;;;;;;5015108;28;20033;-90
2023/10/18 11:23:57;;;;;;;11.93;9.38;;;;;;;;;;5020430;28;20033;-88
2023/10/18 11:26:25;;;;;;;12.20;9.18;;;;;;;;;;5007762;28;20049;-90
2023/10/18 11:28:59;;;;;;;10.77;8.40;;;;;;;;;;5015868;28;20053;-87
2023/10/18 11:31:28;;;;;;;14.38;8.98;;;;;;;;;;5022552;28;20459;-87
2023/10/18 11:34:04;;;;;;;11.98;8.82;;;;;;;;;;4999283;28;20046;-91
2023/10/18 11:36:32;;;;;;;10.07;9.02;;;;;;;;;;4996030;28;20606;-91
2023/10/18 11:41:41;;;;;;;11.98;8.60;;;;;;;;;;5017149;28;20048;-90
2023/10/18 11:44:13;;;;;;;10.88;8.63;;;;;;;;;;5013668;28;20046;-88
2023/10/18 11:46:58;;;;;;;12.43;9.02;;;;;;;;;;5017885;28;20065;-87
2023/10/18 11:49:37;;;;;;;10.85;8.10;;;;;;;;;;5020631;28;20045;-89
2023/10/18 11:52:04;;;;;;;10.57;8.18;;;;;;;;;;5002441;28;20040;-88
2023/10/18 11:54:34;;;;;;;11.90;8.15;;;;;;;;;;5003068;28;20562;-88
2023/10/18 11:57:02;;;;;;;10.82;8.75;;;;;;;;;;5005518;28;20034;-88
2023/10/18 11:59:28;;;;;;;10.90;8.35;;;;;;;;;;4990268;28;20115;-84
2023/10/18 12:02:07;;;;;;;11.02;7.70;;;;;;;;;;5002067;28;20072;-84
2023/10/18 12:04:39;;;;;;;11.55;8.18;;;;;;;;;;4993803;28;20129;-85
2023/10/18 12:07:08;;;;;;;9.30;8.32;;;;;;;;;;4978169;28;20033;-85
2023/10/18 12:09:42;;;;;;;12.52;8.27;;;;;;;;;;4993460;28;20605;-86
2023/10/18 12:12:12;;;;;;;13.00;8.75;;;;;;;;;;5009640;28;21972;-87
2023/10/18 12:14:41;;;;;;;9.77;7.72;;;;;;;;;;4996388;28;20034;-82
2023/10/18 12:17:07;;;;;;;11.07;7.97;;;;;;;;;;4987523;28;20029;-83
2023/10/18 12:19:35;;;;;;;9.82;8.23;;;;;;;;;;5006648;28;20397;-81
2023/10/18 12:22:01;;;;;;;11.52;7.85;;;;;;;;;;4981910;28;20041;-85
2023/10/18 12:24:27;;;;;;;10.98;8.35;;;;;;;;;;4995018;28;20045;-84
2023/10/18 12:26:54;;;;;;;9.85;7.68;;;;;;;;;;4989185;28;20116;-82
2023/10/18 12:29:26;;;;;;;11.15;8.25;;;;;;;;;;5002568;28;20037;-84
2023/10/18 12:31:54;;;;;;;9.20;7.97;;;;;;;;;;4991940;28;20037;-83
2023/10/18 12:34:29;;;;;;;13.00;8.50;;;;;;;;;;4996093;28;20037;-82
2023/10/18 12:36:57;;;;;;;10.65;7.53;;;;;;;;;;4990059;28;20087;-81
2023/10/18 12:39:25;;;;;;;10.70;7.80;;;;;;;;;;4992789;28;20041;-84
2023/10/18 12:41:55;;;;;;;9.63;8.27;;;;;;;;;;5001064;28;20049;-85
2023/10/18 12:44:29;;;;;;;9.40;8.20;;;;;;;;;;4995138;28;20042;-82
2023/10/18 12:46:55;;;;;;;11.70;8.52;;;;;;;;;;4998422;28;20066;-84
2023/10/18 12:49:24;;;;;;;12.38;8.88;;;;;;;;;;4988049;28;20038;-82
2023/10/18 12:52:00;;;;;;;9.23;8.20;;;;;;;;;;4974371;28;20129;-86
2023/10/18 12:54:36;;;;;;;11.52;8.15;;;;;;;;;;4992029;28;20045;-85
2023/10/18 12:57:14;;;;;;;12.25;7.72;;;;;;;;;;4988875;28;20117;-92
2023/10/18 12:59:59;;;;;;;13.07;8.82;;;;;;;;;;5014580;28;20033;-91
2023/10/18 13:03:33;;;;;;;9.63;7.90;;;;;;;;;;4996276;28;20046;-91
2023/10/18 13:05:22;;;;;;;11.85;7.80;;;;;;;;;;4988025;28;20132;-90
2023/10/18 13:07:54;;;;;;;10.82;7.95;;;;;;;;;;4992717;28;20045;-90
2023/10/18 13:10:29;;;;;;;9.15;7.53;;;;;;;;;;4995211;28;20037;-90
2023/10/18 13:12:56;;;;;;;13.00;7.72;;;;;;;;;;5008183;28;20050;-94
2023/10/18 13:15:22;;;;;;;12.85;7.05;;;;;;;;;;5012931;28;20045;-90
2023/10/18 13:17:49;;;;;;;12.50;7.60;;;;;;;;;;5013954;28;20035;-91
2023/10/18 13:20:15;;;;;;;10.90;8.25;;;;;;;;;;5006279;28;20129;-89
2023/10/18 13:22:45;;;;;;;10.43;7.15;;;;;;;;;;5001752;28;20084;-91
2023/10/18 13:25:25;;;;;;;10.90;7.78;;;;;;;;;;4997967;28;21070;-90
2023/10/18 13:27:52;;;;;;;13.27;7.90;;;;;;;;;;4980684;28;20042;-90
2023/10/18 13:30:39;;;;;;;8.70;7.78;;;;;;;;;;5008717;28;20042;-90
2023/10/18 13:33:12;;;;;;;12.63;8.60;;;;;;;;;;4981855;28;21857;-84
2023/10/18 13:35:43;;;;;;;12.77;8.10;;;;;;;;;;4968620;28;20038;-82
2023/10/18 13:38:09;;;;;;;10.63;8.45;;;;;;;;;;4987767;28;20034;-82
2023/10/18 13:40:38;;;;;;;11.45;8.35;;;;;;;;;;4971283;28;20049;-84
2023/10/18 13:43:06;;;;;;;11.55;7.97;;;;;;;;;;4973738;28;20045;-83
2023/10/18 13:45:37;;;;;;;12.25;7.95;;;;;;;;;;4974543;28;20046;-82
2023/10/18 13:48:03;;;;;;;13.02;7.80;;;;;;;;;;4992266;28;20054;-83
2023/10/18 13:50:31;;;;;;;11.50;7.80;;;;;;;;;;4992846;28;20042;-82
2023/10/18 13:52:57;;;;;;;12.63;8.73;;;;;;;;;;4998795;28;20121;-82
2023/10/18 13:55:23;;;;;;;10.40;7.57;;;;;;;;;;4993155;28;20037;-83
2023/10/18 13:57:49;;;;;;;10.50;7.72;;;;;;;;;;4992927;28;20073;-82
2023/10/18 14:00:18;;;;;;;9.27;7.80;;;;;;;;;;4990287;28;20053;-84
2023/10/18 14:02:45;;;;;;;9.90;7.95;;;;;;;;;;5002857;28;20041;-82
2023/10/18 14:05:11;;;;;;;10.48;7.90;;;;;;;;;;4996275;28;20068;-84
2023/10/18 14:07:38;;;;;;;9.77;7.50;;;;;;;;;;5008540;28;20052;-82
2023/10/18 14:10:19;;;;;;;10.18;8.63;;;;;;;;;;4994931;28;20104;-85
2023/10/18 14:12:46;;;;;;;11.85;8.52;;;;;;;;;;4979583;28;20132;-84
2023/10/18 14:15:16;;;;;;;13.48;8.10;;;;;;;;;;4998966;28;20037;-85
2023/10/18 14:17:43;;;;;;;8.95;7.03;;;;;;;;;;4988619;28;20041;-86
2023/10/18 14:20:10;;;;;;;11.57;8.63;;;;;;;;;;5010482;28;20033;-82
2023/10/18 14:22:41;;;;;;;14.25;8.20;;;;;;;;;;5005080;28;20499;-83
2023/10/18 14:25:10;;;;;;;11.55;7.38;;;;;;;;;;5029098;28;20473;-84
2023/10/18 14:27:37;;;;;;;14.80;8.73;;;;;;;;;;5025143;28;20050;-84
2023/10/18 14:30:04;;;;;;;11.93;7.68;;;;;;;;;;5001584;28;20049;-82
2023/10/18 14:32:30;;;;;;;15.40;7.72;;;;;;;;;;5007496;28;20066;-85
2023/10/18 14:34:57;;;;;;;12.93;8.40;;;;;;;;;;4997989;28;20041;-86
2023/10/18 14:37:23;;;;;;;14.48;8.32;;;;;;;;;;5012352;28;20504;-81
2023/10/18 14:39:50;;;;;;;11.35;7.60;;;;;;;;;;4980101;28;20046;-83
2023/10/18 14:42:16;;;;;;;11.70;8.52;;;;;;;;;;4998018;28;20073;-85
2023/10/18 14:44:42;;;;;;;16.02;8.13;;;;;;;;;;5002628;28;20046;-88
2023/10/18 14:47:08;;;;;;;11.00;8.10;;;;;;;;;;5009237;28;20123;-89
2023/10/18 14:49:34;;;;;;;12.93;7.68;;;;;;;;;;4982650;28;20053;-88
2023/10/18 14:52:00;;;;;;;13.18;8.15;;;;;;;;;;4984546;28;20092;-91
2023/10/18 14:54:26;;;;;;;13.13;7.70;;;;;;;;;;5020267;28;20065;-87
2023/10/18 14:56:53;;;;;;;10.13;7.53;;;;;;;;;;5001381;28;20035;-92
2023/10/18 14:59:20;;;;;;;13.60;7.88;;;;;;;;;;5012370;28;20045;-91
2023/10/18 15:01:46;;;;;;;9.88;6.97;;;;;;;;;;5010805;28;20041;-90
2023/10/18 15:04:12;;;;;;;11.85;7.78;;;;;;;;;;5022046;28;20042;-87
2023/10/18 15:06:38;;;;;;;9.80;7.43;;;;;;;;;;4993008;28;20038;-94
2023/10/18 15:09:06;;;;;;;14.25;8.20;;;;;;;;;;5002703;28;20022;-92
2023/10/18 15:11:32;;;;;;;11.55;7.18;;;;;;;;;;5012990;28;20036;-94
2023/10/18 15:13:58;;;;;;;9.98;7.35;;;;;;;;;;5013124;28;20375;-91
2023/10/18 15:16:25;;;;;;;11.45;8.07;;;;;;;;;;4992099;28;20094;-90
2023/10/18 15:18:51;;;;;;;11.38;7.60;;;;;;;;;;4991917;28;20532;-92
2023/10/18 15:21:18;;;;;;;9.70;6.90;;;;;;;;;;4991905;28;20061;-88
2023/10/18 15:23:44;;;;;;;10.55;8.25;;;;;;;;;;5010567;28;20113;-90